createdAt,value
2019-04-30T00:03:50.455Z,95734.00
2019-04-30T00:09:20.138Z,95702.00
2019-04-30T00:14:49.433Z,95706.00
2019-04-30T00:20:18.767Z,95699.00
2019-04-30T00:25:48.078Z,95691.00
2019-04-30T00:31:23.596Z,95686.00
2019-04-30T00:36:48.457Z,95676.00
2019-04-30T00:42:23.968Z,95691.00
2019-04-30T00:47:48.971Z,95692.00
2019-04-30T00:53:18.645Z,95687.00
2019-04-30T00:58:47.959Z,95685.00
2019-04-30T01:04:24.643Z,95670.00
2019-04-30T01:09:55.216Z,95647.00
2019-04-30T01:15:24.763Z,95655.00
2019-04-30T01:20:54.439Z,95638.00
2019-04-30T01:26:27.682Z,95637.00
2019-04-30T01:31:55.204Z,95637.00
2019-04-30T01:37:28.802Z,95627.00
2019-04-30T01:42:55.738Z,95622.00
2019-04-30T01:48:25.325Z,95626.00
2019-04-30T01:53:54.778Z,95619.00
2019-04-30T01:59:29.196Z,95629.00
2019-04-30T02:04:59.212Z,95629.00
2019-04-30T02:10:29.157Z,95628.00
2019-04-30T02:15:59.269Z,95628.00
2019-04-30T02:21:30.052Z,95609.00
2019-04-30T02:26:59.823Z,95605.00
2019-04-30T02:32:30.519Z,95615.00
2019-04-30T02:38:13.787Z,95606.00
2019-04-30T02:43:43.596Z,95609.00
2019-04-30T02:49:13.832Z,95616.00
2019-04-30T02:54:46.079Z,95605.00
2019-04-30T03:00:20.256Z,95605.00
2019-04-30T03:05:49.743Z,95609.00
2019-04-30T03:11:20.717Z,95606.00
2019-04-30T03:16:54.818Z,95604.00
2019-04-30T03:22:30.144Z,95607.00
2019-04-30T03:28:00.369Z,95605.00
2019-04-30T03:33:32.807Z,95616.00
2019-04-30T03:39:00.813Z,95614.00
2019-04-30T03:44:32.347Z,95612.00
2019-04-30T03:50:01.322Z,95612.00
2019-04-30T03:55:30.638Z,95608.00
2019-04-30T04:01:01.692Z,95604.00
2019-04-30T04:06:32.815Z,95613.00
2019-04-30T04:12:20.728Z,95620.00
2019-04-30T04:17:55.165Z,95606.00
2019-04-30T04:23:24.562Z,95604.00
2019-04-30T04:28:53.932Z,95601.00
2019-04-30T04:34:24.515Z,95597.00
2019-04-30T04:39:54.006Z,95601.00
2019-04-30T04:45:24.005Z,95614.00
2019-04-30T04:50:53.392Z,95616.00
2019-04-30T04:56:22.842Z,95614.00
2019-04-30T05:01:52.362Z,95604.00
2019-04-30T05:07:21.749Z,95608.00
2019-04-30T05:12:51.161Z,95605.00
2019-04-30T05:18:22.662Z,95594.00
2019-04-30T05:23:51.590Z,95598.00
2019-04-30T05:29:20.937Z,95605.00
2019-04-30T05:34:50.275Z,95606.00
2019-04-30T05:40:19.724Z,95618.00
2019-04-30T05:45:49.374Z,95628.00
2019-04-30T05:51:21.129Z,95636.00
2019-04-30T05:56:49.853Z,95625.00
2019-04-30T06:02:19.607Z,95627.00
2019-04-30T06:07:51.900Z,95644.00
2019-04-30T06:13:21.954Z,95639.00
2019-04-30T06:18:51.328Z,95644.00
2019-04-30T06:24:20.640Z,95653.00
2019-04-30T06:29:50.113Z,95644.00
2019-04-30T06:35:19.589Z,95656.00
2019-04-30T06:40:49.029Z,95663.00
2019-04-30T06:46:18.761Z,95668.00
2019-04-30T06:51:49.338Z,95672.00
2019-04-30T06:57:19.914Z,95659.00
2019-04-30T07:02:49.575Z,95648.00
2019-04-30T07:08:40.461Z,95655.00
2019-04-30T07:14:09.649Z,95659.00
2019-04-30T07:19:53.162Z,95664.00
2019-04-30T07:25:10.901Z,95656.00
2019-04-30T07:30:40.367Z,95650.00
2019-04-30T07:36:09.889Z,95653.00
2019-04-30T07:41:40.249Z,95651.00
2019-04-30T07:47:09.937Z,95658.00
2019-04-30T07:52:58.066Z,95673.00
2019-04-30T07:58:10.436Z,95678.00
2019-04-30T08:03:56.399Z,95684.00
2019-04-30T08:09:25.713Z,95693.00
2019-04-30T08:14:55.031Z,95702.00
2019-04-30T08:20:24.340Z,95705.00
2019-04-30T08:25:53.675Z,95699.00
2019-04-30T08:31:23.016Z,95705.00
2019-04-30T08:36:53.335Z,95711.00
2019-04-30T08:42:31.756Z,95707.00
2019-04-30T08:47:53.905Z,95717.00
2019-04-30T08:53:29.753Z,95714.00
2019-04-30T08:58:54.923Z,95710.00
2019-04-30T09:04:25.958Z,95717.00
2019-04-30T09:09:55.276Z,95708.00
2019-04-30T09:15:24.583Z,95716.00
2019-04-30T09:20:53.925Z,95709.00
2019-04-30T09:26:23.522Z,95709.00
2019-04-30T09:31:52.893Z,95714.00
2019-04-30T09:37:22.194Z,95711.00
2019-04-30T09:42:51.522Z,95722.00
2019-04-30T09:48:20.961Z,95722.00
2019-04-30T09:53:58.806Z,95721.00
2019-04-30T09:59:21.333Z,95717.00
2019-04-30T10:04:51.032Z,95727.00
2019-04-30T10:10:22.399Z,95720.00
2019-04-30T10:15:54.954Z,95723.00
2019-04-30T10:21:24.435Z,95721.00
2019-04-30T10:26:53.762Z,95710.00
2019-04-30T10:32:23.134Z,95703.00
2019-04-30T10:37:54.863Z,95692.00
2019-04-30T10:43:24.230Z,95701.00
2019-04-30T10:48:53.581Z,95696.00
2019-04-30T10:54:26.297Z,95690.00
2019-04-30T10:59:54.126Z,95693.00
2019-04-30T11:05:23.583Z,95697.00
2019-04-30T11:10:52.983Z,95684.00
2019-04-30T11:16:22.356Z,95679.00
2019-04-30T11:21:51.959Z,95690.00
2019-04-30T11:27:22.199Z,95685.00
2019-04-30T11:32:52.182Z,95665.00
2019-04-30T11:38:21.869Z,95671.00
2019-04-30T11:43:51.342Z,95670.00
2019-04-30T11:49:20.718Z,95674.00
2019-04-30T11:54:54.127Z,95659.00
2019-04-30T12:00:24.838Z,95656.00
2019-04-30T12:05:54.314Z,95672.00
2019-04-30T12:11:34.687Z,95674.00
2019-04-30T12:17:04.119Z,95674.00
2019-04-30T12:22:33.433Z,95665.00
2019-04-30T12:28:02.764Z,95673.00
2019-04-30T12:33:32.167Z,95669.00
2019-04-30T12:39:01.576Z,95668.00
2019-04-30T12:44:31.036Z,95670.00
2019-04-30T12:50:19.502Z,95667.00
2019-04-30T12:56:08.843Z,95658.00
2019-04-30T13:01:39.960Z,95665.00
2019-04-30T13:07:10.346Z,95662.00
2019-04-30T13:12:41.112Z,95663.00
2019-04-30T13:18:10.739Z,95658.00
2019-04-30T13:23:40.602Z,95644.00
2019-04-30T13:29:11.729Z,95648.00
2019-04-30T13:34:45.457Z,95644.00
2019-04-30T13:40:20.421Z,95647.00
2019-04-30T13:45:51.836Z,95635.00
2019-04-30T13:51:20.803Z,95648.00
2019-04-30T13:56:50.303Z,95644.00
2019-04-30T14:02:21.468Z,95650.00
2019-04-30T14:07:55.478Z,95652.00
2019-04-30T14:13:26.765Z,95657.00
2019-04-30T14:18:56.225Z,95650.00
2019-04-30T14:24:25.730Z,95650.00
2019-04-30T14:29:55.141Z,95655.00
2019-04-30T14:35:24.733Z,95645.00
2019-04-30T14:40:54.554Z,95657.00
2019-04-30T14:46:39.650Z,95649.00
2019-04-30T14:52:12.265Z,95656.00
2019-04-30T14:57:51.115Z,95657.00
2019-04-30T15:03:21.898Z,95667.00
2019-04-30T15:08:51.625Z,95670.00
2019-04-30T15:14:20.926Z,95661.00
2019-04-30T15:19:54.154Z,95672.00
2019-04-30T15:25:22.323Z,95662.00
2019-04-30T15:30:52.215Z,95667.00
2019-04-30T15:36:21.643Z,95662.00
2019-04-30T15:41:51.218Z,95664.00
2019-04-30T15:47:22.407Z,95668.00
2019-04-30T15:52:51.755Z,95667.00
2019-04-30T15:58:22.777Z,95663.00
2019-04-30T16:03:53.978Z,95669.00
2019-04-30T16:09:34.235Z,95662.00
2019-04-30T16:15:03.956Z,95668.00
2019-04-30T16:20:33.519Z,95662.00
2019-04-30T16:26:03.962Z,95663.00
2019-04-30T16:31:35.307Z,95658.00
2019-04-30T16:37:05.114Z,95654.00
2019-04-30T16:42:34.786Z,95648.00
2019-04-30T16:48:05.445Z,95639.00
2019-04-30T16:53:34.926Z,95648.00
2019-04-30T16:59:09.090Z,95643.00
2019-04-30T17:04:40.277Z,95645.00
2019-04-30T17:10:20.803Z,95642.00
2019-04-30T17:15:52.227Z,95653.00
2019-04-30T17:21:21.869Z,95653.00
2019-04-30T17:26:51.552Z,95641.00
2019-04-30T17:32:21.396Z,95648.00
2019-04-30T17:37:50.872Z,95652.00
2019-04-30T17:43:20.225Z,95650.00
2019-04-30T17:48:49.993Z,95646.00
2019-04-30T17:54:19.734Z,95652.00
2019-04-30T17:59:50.944Z,95662.00
2019-04-30T18:05:21.150Z,95673.00
2019-04-30T18:10:50.665Z,95679.00
2019-04-30T18:16:20.089Z,95683.00
2019-04-30T18:21:57.268Z,95683.00
2019-04-30T18:27:42.379Z,95697.00
2019-04-30T18:33:03.586Z,95715.00
2019-04-30T18:38:33.191Z,95710.00
2019-04-30T18:44:02.984Z,95715.00
2019-04-30T18:49:32.640Z,95724.00
2019-04-30T18:55:02.154Z,95720.00
2019-04-30T19:00:45.074Z,95724.00
2019-04-30T19:06:25.909Z,95724.00
2019-04-30T19:12:01.101Z,95740.00
2019-04-30T19:17:39.370Z,95741.00
2019-04-30T19:23:10.216Z,95749.00
2019-04-30T19:28:43.885Z,95751.00
2019-04-30T19:34:13.685Z,95744.00
2019-04-30T19:39:43.351Z,95751.00
2019-04-30T19:45:13.372Z,95746.00
2019-04-30T19:50:43.316Z,95743.00
2019-04-30T19:56:12.717Z,95746.00
2019-04-30T20:01:42.603Z,95745.00
2019-04-30T20:07:12.555Z,95748.00
2019-04-30T20:12:41.887Z,95751.00
2019-04-30T20:18:11.476Z,95753.00
2019-04-30T20:23:41.090Z,95749.00
2019-04-30T20:29:12.691Z,95738.00
2019-04-30T20:34:42.134Z,95743.00
2019-04-30T20:40:15.705Z,95747.00
2019-04-30T20:45:45.067Z,95744.00
2019-04-30T20:51:14.452Z,95746.00
2019-04-30T20:56:43.825Z,95746.00
2019-04-30T21:02:13.187Z,95746.00
2019-04-30T21:07:42.553Z,95751.00
2019-04-30T21:13:11.953Z,95731.00
2019-04-30T21:18:41.403Z,95738.00
2019-04-30T21:24:11.078Z,95737.00
2019-04-30T21:29:40.467Z,95733.00
2019-04-30T21:35:26.721Z,95739.00
2019-04-30T21:41:00.919Z,95735.00
2019-04-30T21:46:29.442Z,95726.00
2019-04-30T21:51:58.884Z,95727.00
2019-04-30T21:57:28.287Z,95729.00
2019-04-30T22:02:59.805Z,95724.00
2019-04-30T22:08:29.012Z,95726.00
2019-04-30T22:13:59.443Z,95723.00
2019-04-30T22:19:30.004Z,95721.00
2019-04-30T22:24:59.753Z,95722.00
2019-04-30T22:30:29.523Z,95722.00
2019-04-30T22:36:10.922Z,95721.00
2019-04-30T22:41:41.407Z,95716.00
2019-04-30T22:47:10.794Z,95716.00
2019-04-30T22:52:40.174Z,95717.00
2019-04-30T22:58:09.740Z,95710.00
2019-04-30T23:03:39.296Z,95705.00
2019-04-30T23:09:12.175Z,95710.00
2019-04-30T23:14:41.631Z,95699.00
2019-04-30T23:20:11.813Z,95700.00
2019-04-30T23:25:41.236Z,95684.00
2019-04-30T23:31:10.582Z,95687.00
2019-04-30T23:36:39.903Z,95683.00
2019-04-30T23:42:09.323Z,95685.00
2019-04-30T23:47:39.699Z,95671.00
2019-04-30T23:53:09.119Z,95669.00
2019-04-30T23:58:38.527Z,95668.00
